createdAt,value
2016-12-20T00:09:08.731Z,0.8
2016-12-20T00:19:22.145Z,0.9
2016-12-20T00:29:36.832Z,0.7
2016-12-20T00:39:51.517Z,0.5
2016-12-20T00:50:05.585Z,0
2016-12-20T01:00:19.934Z,-0.5
2016-12-20T01:10:34.253Z,-0.3
2016-12-20T01:20:47.402Z,-0.3
2016-12-20T01:31:03.585Z,-0.5
2016-12-20T01:41:15.828Z,-0.9
2016-12-20T01:51:28.750Z,-1.2
2016-12-20T02:01:42.801Z,-0.9
2016-12-20T02:11:57.122Z,-0.7
2016-12-20T02:22:10.407Z,0
2016-12-20T02:32:24.255Z,-0.1
2016-12-20T02:42:39.126Z,-0.2
2016-12-20T02:52:52.715Z,-0.1
2016-12-20T03:03:07.572Z,-0.2
2016-12-20T03:13:21.860Z,-0.1
2016-12-20T03:23:34.922Z,-0.1
2016-12-20T03:33:49.014Z,-0.4
2016-12-20T03:44:02.732Z,-0.6
2016-12-20T03:54:16.682Z,-0.5
2016-12-20T04:04:30.806Z,-0.6
2016-12-20T04:14:43.941Z,-0.5
2016-12-20T04:24:57.774Z,-0.8
2016-12-20T04:35:12.387Z,-0.3
2016-12-20T04:45:25.807Z,-0.3
2016-12-20T04:55:40.283Z,-0.6
2016-12-20T05:05:54.994Z,-0.5
2016-12-20T05:16:09.762Z,-0.2
2016-12-20T05:26:24.135Z,-0.5
2016-12-20T05:36:38.385Z,-0.5
2016-12-20T05:46:52.820Z,-0.8
2016-12-20T05:57:07.682Z,-0.6
2016-12-20T06:07:22.383Z,-0.4
2016-12-20T06:17:36.803Z,-0.1
2016-12-20T06:27:49.840Z,-0.2
2016-12-20T06:38:03.346Z,-0.3
2016-12-20T06:48:16.523Z,-0.4
2016-12-20T06:58:30.563Z,-0.6
2016-12-20T07:08:45.297Z,-0.5
2016-12-20T07:18:58.696Z,-0.6
2016-12-20T07:29:13.445Z,-0.7
2016-12-20T07:39:26.506Z,-0.6
2016-12-20T07:49:41.221Z,-0.5
2016-12-20T07:59:55.648Z,-0.3
2016-12-20T08:10:09.941Z,-0.1
2016-12-20T08:20:24.400Z,0
2016-12-20T08:30:39.033Z,0.2
2016-12-20T08:40:53.496Z,0.3
2016-12-20T08:51:07.195Z,0.7
2016-12-20T09:01:22.195Z,1.3
2016-12-20T09:11:35.290Z,1.1
2016-12-20T09:21:49.911Z,1.6
2016-12-20T09:32:04.562Z,1.9
2016-12-20T09:42:17.833Z,2.9
2016-12-20T09:52:31.397Z,2.9
2016-12-20T10:02:45.194Z,3.3
2016-12-20T10:12:58.463Z,3.6
2016-12-20T10:23:12.094Z,4
2016-12-20T10:33:25.614Z,4
2016-12-20T10:43:40.618Z,3.8
2016-12-20T10:53:55.189Z,3.7
2016-12-20T11:04:09.271Z,3.9
2016-12-20T11:14:23.126Z,4.1
2016-12-20T11:24:36.241Z,4
2016-12-20T11:34:50.866Z,4.2
2016-12-20T11:45:04.934Z,4.5
2016-12-20T11:55:19.291Z,4.6
2016-12-20T12:05:32.597Z,4.8
2016-12-20T12:15:46.798Z,5
2016-12-20T12:26:00.513Z,4.8
2016-12-20T12:36:15.017Z,5.1
2016-12-20T12:46:29.069Z,4.9
2016-12-20T12:56:43.586Z,5
2016-12-20T13:06:57.512Z,4.9
2016-12-20T13:17:10.909Z,4.6
2016-12-20T13:27:23.869Z,4.6
2016-12-20T13:37:38.928Z,4.6
2016-12-20T13:47:51.610Z,4.4
2016-12-20T13:58:04.999Z,4.1
2016-12-20T14:08:19.055Z,4
2016-12-20T14:18:33.712Z,3.7
2016-12-20T14:28:47.785Z,3.6
2016-12-20T14:39:00.921Z,3.1
2016-12-20T14:49:13.996Z,2.9
2016-12-20T14:59:28.463Z,2.6
2016-12-20T15:09:42.782Z,2.4
2016-12-20T15:19:56.489Z,2.1
2016-12-20T15:30:09.789Z,1.9
2016-12-20T15:40:23.334Z,1.8
2016-12-20T15:50:38.742Z,1.5
2016-12-20T16:00:52.183Z,1.3
2016-12-20T16:11:06.479Z,1.1
2016-12-20T16:21:21.389Z,0.5
2016-12-20T16:31:35.190Z,0.8
2016-12-20T16:41:49.843Z,0.6
2016-12-20T16:52:04.288Z,0.6
2016-12-20T17:02:18.393Z,0.2
2016-12-20T17:12:33.333Z,0.3
2016-12-20T17:22:47.577Z,0.2
2016-12-20T17:33:02.471Z,0
2016-12-20T17:43:17.163Z,0
2016-12-20T17:53:31.618Z,0
2016-12-20T18:03:46.134Z,-0.3
2016-12-20T18:14:01.052Z,-0.4
2016-12-20T18:24:15.783Z,-0.4
2016-12-20T18:34:29.028Z,-0.4
2016-12-20T18:44:43.259Z,-0.6
2016-12-20T18:54:57.238Z,-0.8
2016-12-20T19:05:10.985Z,-1
2016-12-20T19:15:25.758Z,-1.2
2016-12-20T19:25:40.047Z,-1.5
2016-12-20T19:35:54.502Z,-2.1
2016-12-20T19:46:08.987Z,-1.8
2016-12-20T19:56:24.044Z,-1.8
2016-12-20T20:06:37.897Z,-1.5
2016-12-20T20:16:50.789Z,-1.9
2016-12-20T20:27:05.584Z,-1.6
2016-12-20T20:37:18.952Z,-1.4
2016-12-20T20:47:33.237Z,-1.3
2016-12-20T20:57:46.280Z,-1.4
2016-12-20T21:08:01.137Z,-1.6
2016-12-20T21:28:29.103Z,-1.2
2016-12-20T21:38:42.323Z,-1.4
2016-12-20T21:48:57.058Z,-1.3
2016-12-20T21:59:10.840Z,-1.5
2016-12-20T22:19:44.270Z,-1.5
2016-12-20T22:29:51.624Z,-1.9
2016-12-20T22:40:06.504Z,-1.5
2016-12-20T22:50:21.135Z,-1.3
2016-12-20T23:10:50.623Z,-1.5
2016-12-20T23:21:04.559Z,-1.8
2016-12-20T23:41:32.817Z,-1.4
2016-12-20T23:51:45.960Z,-1.2
